Terminal Aerodrome Forecast
Issued by NWS Key West, FL

Home | Current Version | Previous Version | Text Only | Print | Product List | Glossary On
Versions: 1 2 3 4 5 6 7 8 9 10 11 12 13 14 15 16 17 18 19 20 21 22 23
000
FTUS42 KKEY 181100
TAFEYW
TAF
KEYW 181140Z 1812/1912 13012G19KT P6SM SCT025 BKN250
      TEMPO 1813/1815 BKN020
     FM182200 16008KT P6SM BKN050 PROB30 1906/1912 VRB15G25KT 2SM
      TSRA BKN015CB=

USA.gov is the U.S. government's official web portal to all federal, state and local government web resources and services.